createdAt,value
2019-01-31T00:01:20.471Z,23.33
2019-01-31T00:06:05.158Z,23.03
2019-01-31T00:08:46.467Z,20.50
2019-01-31T00:11:30.797Z,20.43
2019-01-31T00:14:09.670Z,21.87
2019-01-31T00:19:19.174Z,20.37
2019-01-31T00:23:01.070Z,19.93
2019-01-31T00:28:12.082Z,17.43
2019-01-31T00:31:05.171Z,19.43
2019-01-31T00:33:41.718Z,18.83
2019-01-31T00:36:34.265Z,20.03
2019-01-31T00:40:15.926Z,19.00
2019-01-31T00:44:55.910Z,18.70
2019-01-31T00:47:45.057Z,19.20
2019-01-31T00:50:25.026Z,18.60
2019-01-31T00:55:06.270Z,19.10
2019-01-31T01:00:53.358Z,18.10
2019-01-31T01:04:06.050Z,17.60
2019-01-31T01:06:54.551Z,17.20
2019-01-31T01:09:31.645Z,18.13
2019-01-31T01:12:49.038Z,16.97
2019-01-31T01:15:30.598Z,17.27
2019-01-31T01:18:07.596Z,17.83
2019-01-31T01:20:46.394Z,16.23
2019-01-31T01:23:40.048Z,16.77
2019-01-31T01:27:21.459Z,17.13
2019-01-31T01:30:34.651Z,17.17
2019-01-31T01:33:12.975Z,17.10
2019-01-31T01:35:50.323Z,17.80
2019-01-31T01:40:37.967Z,17.80
2019-01-31T01:43:23.022Z,17.90
2019-01-31T01:50:06.695Z,20.43
2019-01-31T01:52:53.462Z,19.43
2019-01-31T01:55:30.087Z,21.43
2019-01-31T02:00:15.380Z,18.63
2019-01-31T02:03:43.001Z,19.53
2019-01-31T02:06:54.345Z,20.37
2019-01-31T02:11:36.324Z,18.13
2019-01-31T02:14:15.049Z,19.47
2019-01-31T02:17:06.373Z,20.57
2019-01-31T02:22:01.713Z,19.60
2019-01-31T02:24:38.320Z,20.00
2019-01-31T02:27:20.009Z,21.07
2019-01-31T02:30:17.225Z,21.60
2019-01-31T02:35:05.976Z,21.90
2019-01-31T02:37:53.691Z,21.33
2019-01-31T02:40:32.556Z,21.33
2019-01-31T02:43:15.844Z,20.77
2019-01-31T02:45:59.228Z,21.73
2019-01-31T02:50:41.212Z,22.03
2019-01-31T02:53:27.936Z,20.90
2019-01-31T02:56:13.868Z,21.30
2019-01-31T02:58:53.770Z,21.50
2019-01-31T03:02:38.188Z,22.50
2019-01-31T03:05:16.298Z,22.03
2019-01-31T03:08:08.417Z,22.33
2019-01-31T03:10:43.085Z,21.30
2019-01-31T03:13:37.691Z,21.60
2019-01-31T03:16:14.838Z,22.33
2019-01-31T03:18:51.480Z,20.73
2019-01-31T03:21:36.812Z,22.53
2019-01-31T03:25:24.289Z,22.77
2019-01-31T03:28:22.719Z,21.53
2019-01-31T03:31:32.905Z,23.97
2019-01-31T03:34:12.087Z,22.77
2019-01-31T03:37:13.344Z,23.30
2019-01-31T03:39:52.210Z,21.83
2019-01-31T03:43:01.368Z,23.00
2019-01-31T03:45:57.408Z,23.47
2019-01-31T03:48:33.643Z,22.77
2019-01-31T03:51:10.257Z,23.53
2019-01-31T03:54:03.528Z,23.87
2019-01-31T03:56:44.445Z,24.27
2019-01-31T03:59:17.979Z,25.03
2019-01-31T04:02:14.404Z,24.33
2019-01-31T04:04:48.910Z,22.63
2019-01-31T04:07:17.392Z,21.93
2019-01-31T04:09:45.908Z,22.23
2019-01-31T04:12:14.755Z,24.47
2019-01-31T04:14:43.588Z,23.70
2019-01-31T04:17:12.327Z,24.60
2019-01-31T04:19:40.949Z,23.07
2019-01-31T04:22:09.723Z,24.13
2019-01-31T04:24:38.191Z,22.13
2019-01-31T04:27:06.687Z,24.17
2019-01-31T04:29:35.483Z,24.53
2019-01-31T04:32:05.507Z,23.83
2019-01-31T04:34:33.980Z,24.73
2019-01-31T04:37:02.564Z,22.70
2019-01-31T04:39:31.121Z,24.43
2019-01-31T04:41:59.631Z,24.90
2019-01-31T04:44:28.207Z,25.60
2019-01-31T04:46:56.720Z,25.50
2019-01-31T04:49:25.259Z,24.07
2019-01-31T04:51:53.752Z,24.70
2019-01-31T04:54:22.331Z,23.47
2019-01-31T04:56:51.147Z,24.23
2019-01-31T04:59:19.791Z,24.50
2019-01-31T05:01:48.340Z,24.53
2019-01-31T05:07:48.210Z,26.10
2019-01-31T05:10:17.066Z,24.87
2019-01-31T05:12:46.011Z,25.03
2019-01-31T05:15:14.836Z,24.97
2019-01-31T05:17:43.335Z,25.13
2019-01-31T05:20:15.346Z,25.47
2019-01-31T05:22:43.899Z,25.83
2019-01-31T05:25:13.228Z,25.97
2019-01-31T05:27:42.127Z,25.43
2019-01-31T05:30:11.951Z,25.00
2019-01-31T05:32:42.232Z,25.37
2019-01-31T05:35:11.330Z,24.37
2019-01-31T05:37:40.158Z,27.10
2019-01-31T05:40:10.375Z,25.80
2019-01-31T05:42:40.555Z,23.70
2019-01-31T05:45:11.659Z,27.93
2019-01-31T05:47:40.227Z,26.83
2019-01-31T05:50:11.804Z,27.93
2019-01-31T05:52:41.167Z,26.00
2019-01-31T05:55:10.209Z,24.13
2019-01-31T05:57:38.916Z,25.37
2019-01-31T06:00:10.783Z,24.60
2019-01-31T06:02:39.287Z,27.47
2019-01-31T06:05:08.591Z,25.40
2019-01-31T06:07:37.595Z,25.47
2019-01-31T06:10:07.518Z,24.93
2019-01-31T06:12:36.331Z,26.13
2019-01-31T06:15:06.587Z,26.20
2019-01-31T06:17:35.135Z,25.50
2019-01-31T06:20:03.779Z,26.00
2019-01-31T06:22:33.193Z,27.03
2019-01-31T06:25:01.691Z,25.07
2019-01-31T06:27:31.354Z,26.17
2019-01-31T06:30:00.205Z,26.77
2019-01-31T06:32:29.135Z,23.83
2019-01-31T06:34:58.003Z,26.33
2019-01-31T06:37:27.446Z,25.93
2019-01-31T06:39:56.290Z,26.23
2019-01-31T06:42:25.210Z,26.30
2019-01-31T06:44:53.802Z,25.47
2019-01-31T06:47:22.291Z,27.17
2019-01-31T06:49:51.023Z,26.13
2019-01-31T06:52:19.607Z,25.97
2019-01-31T06:54:48.588Z,27.43
2019-01-31T06:57:17.234Z,26.90
2019-01-31T06:59:45.774Z,26.47
2019-01-31T07:02:14.274Z,26.00
2019-01-31T07:04:42.882Z,27.37
2019-01-31T07:07:11.402Z,27.47
2019-01-31T07:09:40.026Z,28.83
2019-01-31T07:12:08.566Z,27.07
2019-01-31T07:14:37.438Z,24.87
2019-01-31T07:17:06.322Z,26.40
2019-01-31T07:19:35.237Z,27.57
2019-01-31T07:22:03.835Z,26.77
2019-01-31T07:24:32.630Z,24.40
2019-01-31T07:27:01.198Z,25.53
2019-01-31T07:29:29.714Z,24.33
2019-01-31T07:31:58.206Z,25.80
2019-01-31T07:34:26.959Z,24.50
2019-01-31T07:36:56.040Z,24.00
2019-01-31T07:39:24.606Z,24.80
2019-01-31T07:41:53.121Z,22.07
2019-01-31T07:44:21.654Z,23.60
2019-01-31T07:46:50.202Z,24.53
2019-01-31T07:49:18.810Z,23.83
2019-01-31T07:51:47.345Z,23.90
2019-01-31T07:54:16.582Z,23.57
2019-01-31T07:56:45.134Z,23.40
2019-01-31T07:59:13.633Z,25.17
2019-01-31T08:01:42.598Z,24.00
2019-01-31T08:04:11.455Z,25.57
2019-01-31T08:06:40.209Z,27.20
2019-01-31T08:09:09.574Z,26.87
2019-01-31T08:11:38.733Z,25.40
2019-01-31T08:14:07.321Z,23.97
2019-01-31T08:16:35.818Z,23.37
2019-01-31T08:19:05.353Z,22.53
2019-01-31T08:21:33.858Z,23.23
2019-01-31T08:24:02.370Z,24.33
2019-01-31T08:26:31.050Z,24.30
2019-01-31T08:28:59.929Z,25.90
2019-01-31T08:31:28.545Z,25.67
2019-01-31T08:33:57.753Z,25.63
2019-01-31T08:36:26.297Z,27.57
2019-01-31T08:38:54.841Z,29.43
2019-01-31T08:41:23.365Z,29.77
2019-01-31T08:43:52.438Z,24.20
2019-01-31T08:46:21.045Z,24.17
2019-01-31T08:48:49.645Z,23.27
2019-01-31T08:51:18.179Z,24.27
2019-01-31T08:53:46.938Z,22.23
2019-01-31T08:56:15.425Z,25.92
2019-01-31T08:58:44.429Z,25.03
2019-01-31T09:01:12.901Z,25.73
2019-01-31T09:03:41.409Z,23.73
2019-01-31T09:06:10.316Z,24.80
2019-01-31T09:08:38.885Z,24.37
2019-01-31T09:11:07.397Z,24.93
2019-01-31T09:13:38.070Z,22.60
2019-01-31T09:16:04.677Z,22.87
2019-01-31T09:18:34.269Z,20.87
2019-01-31T09:21:13.941Z,22.87
2019-01-31T09:25:58.341Z,24.27
2019-01-31T09:29:09.182Z,21.23
2019-01-31T09:33:57.821Z,19.80
2019-01-31T09:38:43.799Z,19.05
2019-01-31T09:41:23.430Z,19.30
2019-01-31T09:44:14.633Z,20.97
2019-01-31T09:48:59.109Z,20.77
2019-01-31T09:51:41.378Z,21.63
2019-01-31T09:54:20.329Z,22.93
2019-01-31T09:57:13.413Z,30.60
2019-01-31T09:59:55.449Z,27.27
2019-01-31T10:02:35.193Z,25.07
2019-01-31T10:06:15.341Z,26.23
2019-01-31T10:08:55.317Z,20.30
2019-01-31T10:11:31.541Z,22.67
2019-01-31T10:14:21.848Z,22.67
2019-01-31T10:17:03.594Z,23.67
2019-01-31T10:19:51.735Z,23.47
2019-01-31T10:22:33.707Z,21.13
2019-01-31T10:25:15.000Z,20.73
2019-01-31T10:30:06.050Z,20.37
2019-01-31T10:32:50.596Z,18.73
2019-01-31T10:35:32.837Z,20.60
2019-01-31T10:40:18.472Z,19.10
2019-01-31T10:42:56.493Z,19.57
2019-01-31T10:47:44.032Z,21.10
2019-01-31T10:53:15.429Z,18.90
2019-01-31T10:55:57.308Z,19.43
2019-01-31T10:58:52.284Z,21.53
2019-01-31T11:03:44.397Z,21.77
2019-01-31T11:06:29.748Z,18.55
2019-01-31T11:10:20.232Z,19.83
2019-01-31T11:15:02.353Z,19.07
2019-01-31T11:17:43.968Z,18.97
2019-01-31T11:20:20.873Z,17.73
2019-01-31T11:23:03.613Z,19.57
2019-01-31T11:27:50.768Z,20.90
2019-01-31T11:30:31.448Z,19.60
2019-01-31T11:33:11.156Z,17.90
2019-01-31T11:35:54.696Z,18.63
2019-01-31T11:40:39.940Z,19.17
2019-01-31T11:43:19.344Z,17.93
2019-01-31T11:45:56.220Z,18.77
2019-01-31T11:48:40.036Z,21.00
2019-01-31T11:51:51.684Z,21.27
2019-01-31T11:54:39.831Z,19.30
2019-01-31T11:59:26.555Z,20.03
2019-01-31T12:01:55.151Z,19.63
2019-01-31T12:04:23.920Z,17.37
2019-01-31T12:06:52.820Z,17.37
2019-01-31T12:09:22.124Z,18.52
2019-01-31T12:11:51.156Z,19.70
2019-01-31T12:14:20.345Z,18.97
2019-01-31T12:16:48.900Z,18.53
2019-01-31T12:19:17.442Z,21.10
2019-01-31T12:21:45.977Z,21.63
2019-01-31T12:24:16.692Z,19.30
2019-01-31T12:26:43.473Z,19.73
2019-01-31T12:29:12.001Z,18.63
2019-01-31T12:31:41.376Z,19.70
2019-01-31T12:34:10.025Z,17.80
2019-01-31T12:36:38.577Z,22.20
2019-01-31T12:39:10.137Z,20.07
2019-01-31T12:41:39.602Z,18.63
2019-01-31T12:44:09.474Z,20.23
2019-01-31T12:46:37.981Z,20.47
2019-01-31T12:49:06.767Z,19.57
2019-01-31T12:51:35.325Z,19.77
2019-01-31T12:54:03.971Z,18.70
2019-01-31T12:56:33.130Z,18.20
2019-01-31T12:59:01.795Z,17.70
2019-01-31T13:01:30.318Z,18.20
2019-01-31T13:03:59.202Z,17.52
2019-01-31T13:06:28.818Z,18.73
2019-01-31T13:08:57.710Z,19.67
2019-01-31T13:11:26.298Z,19.47
2019-01-31T13:13:54.843Z,20.60
2019-01-31T13:16:24.122Z,21.97
2019-01-31T13:18:52.720Z,22.60
2019-01-31T13:21:21.262Z,21.43
2019-01-31T13:23:49.876Z,21.23
2019-01-31T13:26:20.445Z,20.90
2019-01-31T13:28:49.126Z,19.52
2019-01-31T13:31:17.991Z,20.03
2019-01-31T13:33:47.239Z,19.40
2019-01-31T13:36:16.418Z,20.03
2019-01-31T13:38:45.601Z,18.87
2019-01-31T13:41:14.446Z,17.53
2019-01-31T13:43:44.825Z,18.50
2019-01-31T13:46:13.426Z,19.03
2019-01-31T13:48:42.334Z,18.37
2019-01-31T13:51:11.034Z,18.57
2019-01-31T13:53:39.606Z,21.73
2019-01-31T13:56:09.039Z,21.17
2019-01-31T13:58:38.746Z,21.50
2019-01-31T14:01:08.186Z,19.17
2019-01-31T14:03:37.569Z,19.50
2019-01-31T14:06:06.103Z,20.07
2019-01-31T14:08:34.794Z,21.10
2019-01-31T14:11:04.766Z,20.10
2019-01-31T14:13:33.562Z,21.47
2019-01-31T14:16:02.372Z,20.80
2019-01-31T14:18:31.075Z,19.73
2019-01-31T14:20:59.594Z,18.57
2019-01-31T14:23:28.154Z,19.00
2019-01-31T14:25:57.414Z,21.23
2019-01-31T14:28:26.065Z,21.27
2019-01-31T14:30:54.646Z,20.73
2019-01-31T14:33:24.790Z,20.10
2019-01-31T14:35:54.265Z,18.87
2019-01-31T14:38:23.099Z,20.30
2019-01-31T14:40:51.609Z,22.23
2019-01-31T14:43:20.182Z,18.13
2019-01-31T14:45:48.806Z,19.00
2019-01-31T14:48:17.562Z,18.23
2019-01-31T14:50:47.487Z,17.07
2019-01-31T14:53:15.957Z,18.57
2019-01-31T14:55:44.494Z,19.50
2019-01-31T14:58:13.121Z,17.90
2019-01-31T15:00:41.755Z,17.83
2019-01-31T15:03:10.238Z,17.47
2019-01-31T15:05:38.850Z,18.23
2019-01-31T15:08:07.907Z,19.43
2019-01-31T15:10:36.815Z,17.30
2019-01-31T15:13:05.415Z,16.10
2019-01-31T15:15:33.951Z,18.27
2019-01-31T15:18:02.911Z,18.33
2019-01-31T15:20:37.945Z,18.20
2019-01-31T15:23:02.832Z,20.07
2019-01-31T15:25:31.727Z,18.53
2019-01-31T15:28:00.247Z,20.87
2019-01-31T15:30:31.588Z,19.77
2019-01-31T15:33:00.713Z,20.80
2019-01-31T15:35:29.399Z,19.67
2019-01-31T15:37:58.075Z,21.43
2019-01-31T15:40:30.130Z,20.60
2019-01-31T15:42:59.382Z,19.47
2019-01-31T15:45:28.146Z,17.87
2019-01-31T15:47:56.830Z,17.27
2019-01-31T15:50:25.770Z,17.03
2019-01-31T15:52:54.606Z,19.00
2019-01-31T15:55:24.330Z,18.40
2019-01-31T15:57:52.913Z,20.20
2019-01-31T16:00:33.126Z,19.77
2019-01-31T16:03:03.646Z,20.13
2019-01-31T16:08:09.269Z,21.50
2019-01-31T16:10:37.842Z,19.10
2019-01-31T16:13:06.786Z,20.43
2019-01-31T16:15:36.207Z,19.90
2019-01-31T16:18:05.288Z,20.53
2019-01-31T16:20:33.912Z,19.63
2019-01-31T16:23:02.680Z,19.03
2019-01-31T16:25:31.860Z,19.50
2019-01-31T16:28:00.588Z,18.53
2019-01-31T16:30:29.140Z,18.30
2019-01-31T16:32:57.661Z,18.70
2019-01-31T16:35:26.192Z,16.97
2019-01-31T16:37:55.396Z,17.80
2019-01-31T16:40:24.384Z,17.50
2019-01-31T16:42:52.909Z,18.60
2019-01-31T16:45:21.506Z,18.20
2019-01-31T16:47:50.113Z,18.87
2019-01-31T16:50:19.152Z,20.20
2019-01-31T16:52:47.789Z,19.00
2019-01-31T16:55:18.004Z,18.60
2019-01-31T16:57:46.565Z,21.63
2019-01-31T17:00:19.620Z,23.70
2019-01-31T17:02:49.268Z,23.17
2019-01-31T17:05:20.316Z,22.07
2019-01-31T17:07:48.929Z,20.90
2019-01-31T17:10:17.592Z,20.57
2019-01-31T17:12:46.492Z,15.73
2019-01-31T17:15:18.261Z,17.60
2019-01-31T17:17:44.516Z,15.93
2019-01-31T17:20:20.164Z,17.17
2019-01-31T17:22:48.736Z,16.50
2019-01-31T17:25:17.476Z,17.43
2019-01-31T17:27:46.241Z,16.43
2019-01-31T17:30:17.849Z,19.37
2019-01-31T17:32:46.480Z,18.63
2019-01-31T17:35:15.963Z,17.00
2019-01-31T17:37:45.220Z,17.33
2019-01-31T17:40:16.893Z,17.90
2019-01-31T17:42:45.564Z,17.80
2019-01-31T17:45:15.443Z,17.23
2019-01-31T17:47:44.871Z,17.27
2019-01-31T17:50:13.736Z,17.63
2019-01-31T17:52:43.035Z,16.90
2019-01-31T17:55:13.548Z,17.53
2019-01-31T17:57:42.108Z,19.00
2019-01-31T18:00:16.004Z,21.10
2019-01-31T18:02:45.754Z,19.30
2019-01-31T18:05:16.865Z,16.70
2019-01-31T18:07:45.607Z,17.10
2019-01-31T18:10:17.820Z,18.27
2019-01-31T18:12:46.428Z,18.13
2019-01-31T18:15:15.216Z,18.37
2019-01-31T18:17:43.756Z,17.43
2019-01-31T18:20:14.815Z,18.23
2019-01-31T18:22:43.860Z,17.93
2019-01-31T18:25:35.759Z,19.43
2019-01-31T18:28:07.627Z,19.07
2019-01-31T18:30:36.432Z,19.33
2019-01-31T18:33:05.104Z,17.77
2019-01-31T18:35:33.748Z,17.00
2019-01-31T18:38:03.436Z,15.87
2019-01-31T18:40:32.356Z,17.23
2019-01-31T18:43:00.916Z,16.23
2019-01-31T18:45:30.631Z,16.43
2019-01-31T18:48:00.231Z,16.37
2019-01-31T18:50:31.711Z,18.17
2019-01-31T18:53:00.550Z,16.63
2019-01-31T18:55:29.296Z,17.13
2019-01-31T18:57:57.939Z,17.77
2019-01-31T19:00:31.094Z,18.20
2019-01-31T19:02:59.684Z,18.80
2019-01-31T19:05:28.343Z,19.83
2019-01-31T19:07:57.035Z,19.80
2019-01-31T19:10:25.711Z,20.40
2019-01-31T19:12:55.347Z,21.30
2019-01-31T19:15:24.095Z,24.60
2019-01-31T19:17:52.959Z,23.37
2019-01-31T19:20:23.678Z,21.93
2019-01-31T19:22:52.696Z,25.33
2019-01-31T19:25:21.395Z,29.07
2019-01-31T19:27:50.241Z,26.90
2019-01-31T19:30:22.072Z,23.20
2019-01-31T19:32:51.097Z,23.33
2019-01-31T19:35:19.780Z,22.63
2019-01-31T19:37:48.790Z,22.53
2019-01-31T19:40:20.174Z,24.37
2019-01-31T19:42:48.743Z,23.47
2019-01-31T19:45:23.060Z,27.07
2019-01-31T19:47:51.709Z,24.67
2019-01-31T19:50:20.372Z,22.43
2019-01-31T19:52:49.473Z,22.30
2019-01-31T19:55:18.266Z,22.37
2019-01-31T19:57:47.158Z,20.47
2019-01-31T20:00:23.344Z,21.13
2019-01-31T20:02:53.944Z,21.80
2019-01-31T20:05:22.600Z,22.23
2019-01-31T20:07:51.286Z,20.97
2019-01-31T20:10:22.224Z,21.30
2019-01-31T20:12:51.096Z,20.47
2019-01-31T20:15:19.760Z,22.83
2019-01-31T20:17:50.573Z,21.43
2019-01-31T20:20:21.877Z,22.27
2019-01-31T20:22:50.928Z,20.53
2019-01-31T20:25:19.612Z,20.23
2019-01-31T20:30:24.504Z,21.27
2019-01-31T20:32:54.214Z,20.43
2019-01-31T20:35:22.958Z,21.33
2019-01-31T20:37:51.675Z,19.77
2019-01-31T20:40:29.262Z,19.63
2019-01-31T20:42:57.822Z,19.93
2019-01-31T20:45:26.459Z,20.77
2019-01-31T20:47:55.117Z,19.47
2019-01-31T20:50:26.210Z,19.47
2019-01-31T20:52:54.815Z,20.47
2019-01-31T20:55:23.686Z,18.60
2019-01-31T20:57:52.238Z,20.27
2019-01-31T21:00:30.114Z,20.17
2019-01-31T21:02:59.604Z,19.07
2019-01-31T21:05:28.245Z,19.60
2019-01-31T21:07:56.945Z,19.60
2019-01-31T21:10:26.552Z,18.60
2019-01-31T21:12:54.673Z,18.47
2019-01-31T21:15:23.478Z,17.97
2019-01-31T21:17:52.031Z,19.70
2019-01-31T21:20:22.200Z,19.17
2019-01-31T21:22:51.085Z,19.00
2019-01-31T21:25:19.945Z,20.03
2019-01-31T21:27:49.184Z,20.43
2019-01-31T21:30:22.280Z,19.53
2019-01-31T21:32:51.941Z,22.80
2019-01-31T21:35:20.581Z,20.53
2019-01-31T21:37:49.300Z,20.60
2019-01-31T21:40:18.444Z,19.70
2019-01-31T21:42:47.404Z,20.17
2019-01-31T21:45:16.816Z,18.80
2019-01-31T21:47:45.411Z,19.17
2019-01-31T21:50:17.516Z,21.30
2019-01-31T21:52:46.337Z,21.30
2019-01-31T21:55:15.212Z,21.17
2019-01-31T21:57:44.392Z,22.17
2019-01-31T22:00:16.481Z,20.00
2019-01-31T22:02:45.361Z,19.43
2019-01-31T22:05:14.376Z,17.83
2019-01-31T22:07:43.362Z,18.33
2019-01-31T22:10:13.376Z,19.23
2019-01-31T22:12:42.223Z,18.30
2019-01-31T22:28:48.523Z,16.30
2019-01-31T22:31:17.102Z,17.27
2019-01-31T22:33:45.609Z,16.67
2019-01-31T22:36:14.201Z,17.53
2019-01-31T22:38:45.509Z,16.90
2019-01-31T22:41:11.942Z,15.95
2019-01-31T22:43:40.774Z,16.17
2019-01-31T22:46:10.089Z,17.20
2019-01-31T22:48:39.115Z,16.10
2019-01-31T22:51:07.802Z,16.20
2019-01-31T22:53:36.654Z,16.20
2019-01-31T22:56:05.626Z,17.03
2019-01-31T22:58:34.141Z,15.90
2019-01-31T23:01:20.295Z,16.30
2019-01-31T23:03:48.966Z,16.60
2019-01-31T23:06:18.070Z,16.15
2019-01-31T23:08:46.783Z,16.80
2019-01-31T23:11:15.306Z,17.30
2019-01-31T23:13:43.850Z,18.27
2019-01-31T23:16:13.037Z,17.20
2019-01-31T23:18:41.650Z,16.60
2019-01-31T23:21:10.270Z,17.97
2019-01-31T23:23:38.814Z,17.57
2019-01-31T23:26:07.962Z,17.47
2019-01-31T23:28:36.482Z,16.40
2019-01-31T23:31:05.343Z,15.47
2019-01-31T23:33:33.877Z,15.53
2019-01-31T23:36:02.393Z,15.37
2019-01-31T23:38:31.494Z,15.10
2019-01-31T23:41:00.002Z,15.07
2019-01-31T23:43:28.618Z,16.37
2019-01-31T23:45:57.590Z,16.10
2019-01-31T23:48:26.129Z,15.83
2019-01-31T23:50:55.205Z,15.10
2019-01-31T23:53:23.717Z,16.23
2019-01-31T23:55:53.081Z,16.57
2019-01-31T23:58:21.586Z,15.00
